createdAt,value
2018-12-30T00:01:33.948Z,90.60
2018-12-30T00:03:38.436Z,90.40
2018-12-30T00:06:21.786Z,91.10
2018-12-30T00:08:26.194Z,91.90
2018-12-30T00:10:30.301Z,90.90
2018-12-30T00:12:35.511Z,90.40
2018-12-30T00:14:39.392Z,90.00
2018-12-30T00:16:43.266Z,90.80
2018-12-30T00:18:47.174Z,90.80
2018-12-30T00:26:37.085Z,92.40
2018-12-30T00:42:38.326Z,93.30
2018-12-30T00:44:44.914Z,92.70
2018-12-30T00:46:55.124Z,92.60
2018-12-30T00:49:00.671Z,92.30
2018-12-30T00:51:04.479Z,92.30
2018-12-30T00:56:11.417Z,92.50
2018-12-30T00:58:15.293Z,92.30
2018-12-30T01:00:19.820Z,91.30
2018-12-30T01:02:23.711Z,90.70
2018-12-30T01:04:30.989Z,90.80
2018-12-30T01:06:34.723Z,90.80
2018-12-30T01:08:38.577Z,91.10
2018-12-30T01:11:18.990Z,91.00
2018-12-30T01:19:05.761Z,92.60
2018-12-30T01:24:18.451Z,93.20
2018-12-30T01:26:30.290Z,92.90
2018-12-30T01:28:35.978Z,92.40
2018-12-30T01:30:39.734Z,91.70
2018-12-30T01:32:46.306Z,91.50
2018-12-30T01:35:09.099Z,92.30
2018-12-30T01:37:16.399Z,91.90
2018-12-30T01:39:21.573Z,92.00
2018-12-30T01:41:27.445Z,92.10
2018-12-30T01:43:34.964Z,92.10
2018-12-30T01:45:38.799Z,91.90
2018-12-30T01:47:42.715Z,91.90
2018-12-30T01:49:46.677Z,91.00
2018-12-30T01:51:51.958Z,91.20
2018-12-30T01:54:01.470Z,90.90
2018-12-30T01:56:06.845Z,91.30
2018-12-30T01:58:34.925Z,92.20
2018-12-30T02:00:39.104Z,91.30
2018-12-30T02:02:45.456Z,90.80
2018-12-30T02:04:51.851Z,90.50
2018-12-30T02:07:09.689Z,91.60
2018-12-30T02:12:15.051Z,91.90
2018-12-30T02:14:14.620Z,93.20
2018-12-30T02:16:18.462Z,92.80
2018-12-30T02:18:29.846Z,92.60
2018-12-30T02:20:41.274Z,92.40
2018-12-30T02:22:40.621Z,92.80
2018-12-30T02:24:44.449Z,92.20
2018-12-30T02:26:56.042Z,93.00
2018-12-30T02:29:06.964Z,92.60
2018-12-30T02:31:33.508Z,92.70
2018-12-30T02:37:00.998Z,92.80
2018-12-30T02:39:06.867Z,92.80
2018-12-30T02:41:12.118Z,92.80
2018-12-30T02:43:17.196Z,91.90
2018-12-30T02:45:37.704Z,92.00
2018-12-30T02:47:54.298Z,93.00
2018-12-30T02:49:59.065Z,93.80
2018-12-30T02:52:07.445Z,93.40
2018-12-30T02:54:11.433Z,93.60
2018-12-30T02:56:50.523Z,92.90
2018-12-30T02:58:51.843Z,92.80
2018-12-30T03:00:55.660Z,93.20
2018-12-30T03:03:02.680Z,93.00
2018-12-30T03:05:38.250Z,92.60
2018-12-30T03:07:13.584Z,92.90
2018-12-30T03:09:17.381Z,93.20
2018-12-30T03:14:25.698Z,93.60
2018-12-30T03:16:29.639Z,93.00
2018-12-30T03:18:33.555Z,93.00
2018-12-30T03:20:38.986Z,93.50
2018-12-30T03:22:42.798Z,93.10
2018-12-30T03:25:20.296Z,92.40
2018-12-30T03:27:24.246Z,92.50
2018-12-30T03:29:28.717Z,92.50
2018-12-30T03:31:34.197Z,92.70
2018-12-30T03:33:38.058Z,92.10
2018-12-30T03:35:41.860Z,92.60
2018-12-30T03:37:48.797Z,93.30
2018-12-30T03:43:23.432Z,93.30
2018-12-30T03:45:40.162Z,93.20
2018-12-30T03:47:43.944Z,93.90
2018-12-30T03:50:05.769Z,94.10
2018-12-30T03:52:09.600Z,93.30
2018-12-30T03:54:13.316Z,92.50
2018-12-30T03:56:22.892Z,92.60
2018-12-30T03:58:26.978Z,92.90
2018-12-30T04:00:32.475Z,92.90
2018-12-30T04:02:37.963Z,92.90
2018-12-30T04:04:43.497Z,92.00
2018-12-30T04:06:50.287Z,92.20
2018-12-30T04:08:56.449Z,92.60
2018-12-30T04:11:04.560Z,92.60
2018-12-30T04:15:42.721Z,93.30
2018-12-30T04:17:46.599Z,93.80
2018-12-30T04:22:43.184Z,94.30
2018-12-30T04:24:48.735Z,93.80
2018-12-30T04:27:05.501Z,93.90
2018-12-30T04:29:09.453Z,93.40
2018-12-30T04:31:14.732Z,93.70
2018-12-30T04:33:24.366Z,94.00
2018-12-30T04:35:29.581Z,93.30
2018-12-30T04:37:35.058Z,93.80
2018-12-30T04:39:40.363Z,94.00
2018-12-30T04:41:49.213Z,93.80
2018-12-30T04:44:11.207Z,93.30
2018-12-30T04:46:26.888Z,94.30
2018-12-30T04:48:30.645Z,94.60
2018-12-30T04:50:34.472Z,93.90
2018-12-30T04:52:39.744Z,93.50
2018-12-30T04:54:44.824Z,93.10
2018-12-30T04:56:49.491Z,93.20
2018-12-30T04:58:57.993Z,93.30
2018-12-30T05:01:05.298Z,93.50
2018-12-30T05:03:09.066Z,93.30
2018-12-30T05:08:07.152Z,94.10
2018-12-30T05:13:14.252Z,93.90
2018-12-30T05:15:18.128Z,93.00
2018-12-30T05:17:21.921Z,92.30
2018-12-30T05:19:25.619Z,91.80
2018-12-30T05:21:35.593Z,92.10
2018-12-30T05:23:39.711Z,91.80
2018-12-30T05:25:43.531Z,92.10
2018-12-30T05:27:47.335Z,93.50
2018-12-30T05:29:51.185Z,92.60
2018-12-30T05:31:55.007Z,92.30
2018-12-30T05:33:58.818Z,92.70
2018-12-30T05:36:05.524Z,93.00
2018-12-30T05:38:10.144Z,93.10
2018-12-30T05:40:14.098Z,92.70
2018-12-30T05:42:18.015Z,93.50
2018-12-30T05:44:21.809Z,93.60
2018-12-30T05:46:25.595Z,93.60
2018-12-30T05:49:05.101Z,94.10
2018-12-30T05:51:09.096Z,94.10
2018-12-30T05:53:15.870Z,94.00
2018-12-30T05:55:19.951Z,94.30
2018-12-30T05:57:23.857Z,94.30
2018-12-30T05:59:29.221Z,93.60
2018-12-30T06:01:37.390Z,94.40
2018-12-30T06:03:41.410Z,94.70
2018-12-30T06:05:45.251Z,94.40
2018-12-30T06:07:49.078Z,94.20
2018-12-30T06:12:26.310Z,93.80
2018-12-30T06:14:30.114Z,93.80
2018-12-30T06:16:38.429Z,93.80
2018-12-30T06:18:44.160Z,93.90
2018-12-30T06:20:47.933Z,93.90
2018-12-30T06:22:51.695Z,93.00
2018-12-30T06:24:55.484Z,92.40
2018-12-30T06:26:59.447Z,92.70
2018-12-30T06:29:03.444Z,92.60
2018-12-30T06:31:07.392Z,93.00
2018-12-30T06:33:11.128Z,93.50
2018-12-30T06:35:16.162Z,93.60
2018-12-30T06:37:19.923Z,92.90
2018-12-30T06:39:23.725Z,92.50
2018-12-30T06:41:28.319Z,92.70
2018-12-30T06:43:33.292Z,93.50
2018-12-30T06:45:37.108Z,93.60
2018-12-30T06:47:40.897Z,93.60
2018-12-30T06:49:44.782Z,93.30
2018-12-30T06:51:48.762Z,92.60
2018-12-30T06:53:52.566Z,92.30
2018-12-30T06:55:56.548Z,92.20
2018-12-30T06:58:00.502Z,92.10
2018-12-30T07:00:05.478Z,91.60
2018-12-30T07:02:09.399Z,91.30
2018-12-30T07:04:13.329Z,91.80
2018-12-30T07:06:17.102Z,91.60
2018-12-30T07:08:21.000Z,91.50
2018-12-30T07:10:24.763Z,91.50
2018-12-30T07:12:32.951Z,91.50
2018-12-30T07:14:36.937Z,91.30
2018-12-30T07:16:41.629Z,91.30
2018-12-30T07:18:45.462Z,92.70
2018-12-30T07:20:49.354Z,92.40
2018-12-30T07:22:53.525Z,93.10
2018-12-30T07:24:57.450Z,93.60
2018-12-30T07:27:03.266Z,92.80
2018-12-30T07:29:06.815Z,92.90
2018-12-30T07:31:10.556Z,93.00
2018-12-30T07:33:15.945Z,92.40
2018-12-30T07:35:21.332Z,92.10
2018-12-30T07:37:25.101Z,91.70
2018-12-30T07:39:28.970Z,91.90
2018-12-30T07:41:37.105Z,92.00
2018-12-30T07:43:38.204Z,91.30
2018-12-30T07:45:42.042Z,91.40
2018-12-30T07:47:45.913Z,91.50
2018-12-30T07:49:49.701Z,91.80
2018-12-30T07:51:54.299Z,92.90
2018-12-30T07:53:58.072Z,92.80
2018-12-30T07:56:05.010Z,92.60
2018-12-30T07:58:08.832Z,92.30
2018-12-30T08:00:12.663Z,91.80
2018-12-30T08:02:16.566Z,92.50
2018-12-30T08:04:22.416Z,92.00
2018-12-30T08:06:26.285Z,92.10
2018-12-30T08:08:30.079Z,91.80
2018-12-30T08:10:35.287Z,91.60
2018-12-30T08:12:39.107Z,92.30
2018-12-30T08:14:43.332Z,91.80
2018-12-30T08:16:47.163Z,91.70
2018-12-30T08:18:52.586Z,92.00
2018-12-30T08:20:56.467Z,92.10
2018-12-30T08:23:00.326Z,91.90
2018-12-30T08:25:06.606Z,92.30
2018-12-30T08:27:10.497Z,93.30
2018-12-30T08:29:14.340Z,93.60
2018-12-30T08:31:18.190Z,93.40
2018-12-30T08:33:23.820Z,93.30
2018-12-30T08:35:27.784Z,93.50
2018-12-30T08:37:31.551Z,92.70
2018-12-30T08:39:35.280Z,92.60
2018-12-30T08:41:39.032Z,92.50
2018-12-30T08:43:42.921Z,91.80
2018-12-30T08:45:46.756Z,91.10
2018-12-30T08:47:59.781Z,91.50
2018-12-30T08:50:04.830Z,91.00
2018-12-30T08:52:10.038Z,91.10
2018-12-30T08:54:15.573Z,91.30
2018-12-30T08:56:19.647Z,91.80
2018-12-30T08:58:23.431Z,91.00
2018-12-30T09:00:28.770Z,91.50
2018-12-30T09:02:32.608Z,92.00
2018-12-30T09:04:41.648Z,91.90
2018-12-30T09:06:45.465Z,92.00
2018-12-30T09:08:49.234Z,92.00
2018-12-30T09:10:55.322Z,91.10
2018-12-30T09:12:59.344Z,92.00
2018-12-30T09:15:03.119Z,91.60
2018-12-30T09:17:06.918Z,92.00
2018-12-30T09:19:12.502Z,92.40
2018-12-30T09:21:17.878Z,91.70
2018-12-30T09:23:21.724Z,91.80
2018-12-30T09:25:25.478Z,91.60
2018-12-30T09:27:29.439Z,91.70
2018-12-30T09:29:33.642Z,91.80
2018-12-30T09:31:38.543Z,91.60
2018-12-30T09:33:43.832Z,92.40
2018-12-30T09:35:48.531Z,92.10
2018-12-30T09:37:52.312Z,91.80
2018-12-30T09:39:56.077Z,92.50
2018-12-30T09:42:01.035Z,92.50
2018-12-30T09:44:05.003Z,92.00
2018-12-30T09:46:08.992Z,91.50
2018-12-30T09:48:13.109Z,92.00
2018-12-30T09:50:16.914Z,92.90
2018-12-30T09:52:23.828Z,92.10
2018-12-30T09:54:28.723Z,92.60
2018-12-30T09:56:35.482Z,92.10
2018-12-30T09:58:39.316Z,92.60
2018-12-30T10:00:43.159Z,91.90
2018-12-30T10:02:46.918Z,91.90
2018-12-30T10:04:50.794Z,91.90
2018-12-30T10:06:54.655Z,92.30
2018-12-30T10:08:58.375Z,92.20
2018-12-30T10:11:04.690Z,92.00
2018-12-30T10:13:07.827Z,91.10
2018-12-30T10:15:11.567Z,91.10
2018-12-30T10:17:18.182Z,91.00
2018-12-30T10:19:27.216Z,91.20
2018-12-30T10:21:30.868Z,90.20
2018-12-30T10:23:34.601Z,90.20
2018-12-30T10:25:38.498Z,90.10
2018-12-30T10:27:42.340Z,90.40
2018-12-30T10:29:47.719Z,90.10
2018-12-30T10:31:51.573Z,90.20
2018-12-30T10:33:55.593Z,90.50
2018-12-30T10:35:59.498Z,90.70
2018-12-30T10:38:03.292Z,91.10
2018-12-30T10:40:07.174Z,90.80
2018-12-30T10:42:12.145Z,90.80
2018-12-30T10:44:15.977Z,90.80
2018-12-30T10:46:19.840Z,90.70
2018-12-30T10:48:25.579Z,90.90
2018-12-30T10:50:32.511Z,90.90
2018-12-30T10:52:36.558Z,89.90
2018-12-30T10:54:40.511Z,88.50
2018-12-30T10:56:44.914Z,90.40
2018-12-30T10:58:48.713Z,89.50
2018-12-30T11:00:55.646Z,88.60
2018-12-30T11:02:59.673Z,89.50
2018-12-30T11:05:03.343Z,88.20
2018-12-30T11:07:07.177Z,87.20
2018-12-30T11:09:10.944Z,86.10
2018-12-30T11:11:14.763Z,85.80
2018-12-30T11:13:18.544Z,85.40
2018-12-30T11:15:22.279Z,84.60
2018-12-30T11:17:27.529Z,87.10
2018-12-30T11:19:31.416Z,86.10
2018-12-30T11:21:35.164Z,87.60
2018-12-30T11:23:38.951Z,87.60
2018-12-30T11:25:42.807Z,90.00
2018-12-30T11:27:46.732Z,89.00
2018-12-30T11:29:50.542Z,88.20
2018-12-30T11:31:54.683Z,88.60
2018-12-30T11:33:58.609Z,88.80
2018-12-30T11:36:05.727Z,87.80
2018-12-30T11:38:10.567Z,88.00
2018-12-30T11:40:16.107Z,88.20
2018-12-30T11:42:20.117Z,87.40
2018-12-30T11:44:23.896Z,89.30
2018-12-30T11:46:27.770Z,88.30
2018-12-30T11:48:31.739Z,89.10
2018-12-30T11:50:35.683Z,90.30
2018-12-30T11:52:39.478Z,89.90
2018-12-30T11:54:45.020Z,89.40
2018-12-30T11:56:50.933Z,90.00
2018-12-30T11:58:54.725Z,88.90
2018-12-30T12:00:58.542Z,89.70
2018-12-30T12:03:02.294Z,89.60
2018-12-30T12:05:07.876Z,88.60
2018-12-30T12:07:11.678Z,87.80
2018-12-30T12:09:19.550Z,87.50
2018-12-30T12:11:21.021Z,87.30
2018-12-30T12:13:35.238Z,87.60
2018-12-30T12:15:42.404Z,87.20
2018-12-30T12:17:46.097Z,86.90
2018-12-30T12:19:49.787Z,87.40
2018-12-30T12:21:53.603Z,86.40
2018-12-30T12:23:57.477Z,86.70
2018-12-30T12:26:03.947Z,86.80
2018-12-30T12:28:07.708Z,87.20
2018-12-30T12:30:11.641Z,87.10
2018-12-30T12:32:15.443Z,87.10
2018-12-30T12:34:19.476Z,87.80
2018-12-30T12:36:24.222Z,88.10
2018-12-30T12:38:28.062Z,86.90
2018-12-30T12:40:34.673Z,88.10
2018-12-30T12:42:38.374Z,88.80
2018-12-30T12:48:03.746Z,88.50
2018-12-30T12:50:07.653Z,88.90
2018-12-30T12:52:11.419Z,87.20
2018-12-30T12:54:15.291Z,87.70
2018-12-30T12:56:20.606Z,89.70
2018-12-30T12:58:24.408Z,89.20
2018-12-30T13:00:28.308Z,87.60
2018-12-30T13:02:32.174Z,86.50
2018-12-30T13:04:35.988Z,87.00
2018-12-30T13:06:39.771Z,86.60
2018-12-30T13:08:43.572Z,87.60
2018-12-30T13:10:49.082Z,87.30
2018-12-30T13:12:52.903Z,88.90
2018-12-30T13:14:56.613Z,86.70
2018-12-30T13:17:00.498Z,85.70
2018-12-30T13:19:04.218Z,84.40
2018-12-30T13:21:07.959Z,83.60
2018-12-30T13:23:12.016Z,83.20
2018-12-30T13:25:17.353Z,82.80
2018-12-30T13:27:21.274Z,81.80
2018-12-30T13:29:26.580Z,83.20
2018-12-30T13:31:30.412Z,83.30
2018-12-30T13:33:34.281Z,83.70
2018-12-30T13:35:43.265Z,83.10
2018-12-30T13:37:43.632Z,82.90
2018-12-30T13:39:47.493Z,83.00
2018-12-30T13:41:51.413Z,83.30
2018-12-30T13:43:55.182Z,83.20
2018-12-30T13:45:58.894Z,83.30
2018-12-30T13:48:02.716Z,82.70
2018-12-30T13:50:07.006Z,83.60
2018-12-30T13:52:12.098Z,84.50
2018-12-30T13:54:20.507Z,83.70
2018-12-30T13:56:22.394Z,83.40
2018-12-30T13:58:26.193Z,84.20
2018-12-30T14:00:30.175Z,84.60
2018-12-30T14:02:36.882Z,86.30
2018-12-30T14:04:41.118Z,86.80
2018-12-30T14:06:44.901Z,87.10
2018-12-30T14:08:49.032Z,85.70
2018-12-30T14:10:52.824Z,85.00
2018-12-30T14:12:56.611Z,86.40
2018-12-30T14:15:00.413Z,85.90
2018-12-30T14:17:06.823Z,84.70
2018-12-30T14:19:09.710Z,84.10
2018-12-30T14:21:13.644Z,83.70
2018-12-30T14:23:17.555Z,84.00
2018-12-30T14:25:21.369Z,83.70
2018-12-30T14:27:25.306Z,84.60
2018-12-30T14:29:29.063Z,85.40
2018-12-30T14:31:32.885Z,84.50
2018-12-30T14:33:36.727Z,83.50
2018-12-30T14:35:40.562Z,82.80
2018-12-30T14:37:44.329Z,82.90
2018-12-30T14:39:48.140Z,82.70
2018-12-30T14:41:51.962Z,83.00
2018-12-30T14:43:55.667Z,82.60
2018-12-30T14:45:59.523Z,82.40
2018-12-30T14:48:03.299Z,83.30
2018-12-30T14:50:10.026Z,84.00
2018-12-30T14:52:13.939Z,84.60
2018-12-30T14:54:17.742Z,83.70
2018-12-30T14:56:21.505Z,84.90
2018-12-30T14:58:25.342Z,86.20
2018-12-30T15:00:29.062Z,86.00
2018-12-30T15:02:32.906Z,85.50
2018-12-30T15:04:36.636Z,84.40
2018-12-30T15:06:43.277Z,84.10
2018-12-30T15:08:47.491Z,83.30
2018-12-30T15:10:51.268Z,83.30
2018-12-30T15:12:55.025Z,83.00
2018-12-30T15:15:00.476Z,84.20
2018-12-30T15:17:04.229Z,83.70
2018-12-30T15:19:08.108Z,84.00
2018-12-30T15:21:13.331Z,85.10
2018-12-30T15:23:17.219Z,84.30
2018-12-30T15:25:21.006Z,83.90
2018-12-30T15:27:24.735Z,84.50
2018-12-30T15:29:28.456Z,83.90
2018-12-30T15:31:32.402Z,82.50
2018-12-30T15:33:36.261Z,82.20
2018-12-30T15:35:41.759Z,82.00
2018-12-30T15:37:45.498Z,81.90
2018-12-30T15:39:50.059Z,81.10
2018-12-30T15:41:53.777Z,80.80
2018-12-30T15:43:57.536Z,81.40
2018-12-30T15:46:01.344Z,81.60
2018-12-30T15:48:05.147Z,81.40
2018-12-30T15:50:12.663Z,81.60
2018-12-30T15:52:16.022Z,81.50
2018-12-30T15:54:19.886Z,81.50
2018-12-30T15:56:23.657Z,81.60
2018-12-30T15:58:28.644Z,81.50
2018-12-30T16:00:32.436Z,81.50
2018-12-30T16:02:37.046Z,81.40
2018-12-30T16:04:42.879Z,82.00
2018-12-30T16:06:46.337Z,82.20
2018-12-30T16:08:50.292Z,81.70
2018-12-30T16:10:54.091Z,81.60
2018-12-30T16:12:57.973Z,81.70
2018-12-30T16:15:01.805Z,81.30
2018-12-30T16:17:05.679Z,81.10
2018-12-30T16:19:13.660Z,80.50
2018-12-30T16:21:14.899Z,80.70
2018-12-30T16:23:20.152Z,80.70
2018-12-30T16:25:27.315Z,80.80
2018-12-30T16:27:33.752Z,80.00
2018-12-30T16:29:34.902Z,80.70
2018-12-30T16:31:38.643Z,80.80
2018-12-30T16:33:42.493Z,80.90
2018-12-30T16:35:46.267Z,80.40
2018-12-30T16:37:50.185Z,80.30
2018-12-30T16:39:53.875Z,80.10
2018-12-30T16:41:58.009Z,80.20
2018-12-30T16:44:01.822Z,80.30
2018-12-30T16:46:06.751Z,80.30
2018-12-30T16:48:12.004Z,80.50
2018-12-30T16:50:15.781Z,80.70
2018-12-30T16:52:19.583Z,80.60
2018-12-30T16:54:23.294Z,80.50
2018-12-30T16:56:27.096Z,79.90
2018-12-30T16:58:30.899Z,79.90
2018-12-30T17:00:34.675Z,80.50
2018-12-30T17:02:38.427Z,80.90
2018-12-30T17:04:42.216Z,81.40
2018-12-30T17:06:45.916Z,81.60
2018-12-30T17:08:49.739Z,81.10
2018-12-30T17:10:53.416Z,80.60
2018-12-30T17:12:57.259Z,81.50
2018-12-30T17:15:00.966Z,80.80
2018-12-30T17:17:07.157Z,80.70
2018-12-30T17:19:11.053Z,80.20
2018-12-30T17:21:14.875Z,80.30
2018-12-30T17:23:18.648Z,80.30
2018-12-30T17:25:22.394Z,80.80
2018-12-30T17:27:26.221Z,80.60
2018-12-30T17:29:30.574Z,80.50
2018-12-30T17:31:34.406Z,80.60
2018-12-30T17:33:38.183Z,80.30
2018-12-30T17:35:41.960Z,80.50
2018-12-30T17:37:45.771Z,79.20
2018-12-30T17:39:49.619Z,80.70
2018-12-30T17:41:53.437Z,81.60
2018-12-30T17:43:57.472Z,82.20
2018-12-30T17:46:01.315Z,81.50
2018-12-30T17:48:05.148Z,81.00
2018-12-30T17:50:09.446Z,80.80
2018-12-30T17:52:13.195Z,80.60
2018-12-30T17:54:17.217Z,80.10
2018-12-30T17:56:21.055Z,79.60
2018-12-30T17:58:24.790Z,79.20
2018-12-30T18:00:31.176Z,79.50
2018-12-30T18:02:34.162Z,79.90
2018-12-30T18:04:38.013Z,79.90
2018-12-30T18:06:41.850Z,79.80
2018-12-30T18:08:45.589Z,79.80
2018-12-30T18:10:49.341Z,79.90
2018-12-30T18:12:53.167Z,80.00
2018-12-30T18:14:57.001Z,80.50
2018-12-30T18:17:00.822Z,80.40
2018-12-30T18:19:04.519Z,80.00
2018-12-30T18:21:08.257Z,80.40
2018-12-30T18:23:12.059Z,79.70
2018-12-30T18:25:15.829Z,79.60
2018-12-30T18:27:19.694Z,79.30
2018-12-30T18:29:33.762Z,79.00
2018-12-30T18:31:30.415Z,79.60
2018-12-30T18:33:34.181Z,79.30
2018-12-30T18:35:38.045Z,80.10
2018-12-30T18:37:41.823Z,80.20
2018-12-30T18:39:45.613Z,79.70
2018-12-30T18:41:49.374Z,79.60
2018-12-30T18:43:54.584Z,79.30
2018-12-30T18:45:58.500Z,80.00
2018-12-30T18:48:02.316Z,79.70
2018-12-30T18:50:08.631Z,80.10
2018-12-30T18:52:12.453Z,79.60
2018-12-30T18:54:16.322Z,80.50
2018-12-30T18:56:20.044Z,80.20
2018-12-30T18:58:25.721Z,78.80
2018-12-30T19:00:29.243Z,78.90
2018-12-30T19:02:33.092Z,78.60
2018-12-30T19:04:37.002Z,79.90
2018-12-30T19:06:40.795Z,79.10
2018-12-30T19:08:44.709Z,80.90
2018-12-30T19:10:48.502Z,81.50
2018-12-30T19:12:53.989Z,80.70
2018-12-30T19:14:57.782Z,80.20
2018-12-30T19:17:01.603Z,80.00
2018-12-30T19:19:05.446Z,83.30
2018-12-30T19:21:09.173Z,84.00
2018-12-30T19:23:13.040Z,83.00
2018-12-30T19:25:16.979Z,84.20
2018-12-30T19:27:20.794Z,86.20
2018-12-30T19:29:24.758Z,85.90
2018-12-30T19:31:28.641Z,82.90
2018-12-30T19:33:32.451Z,82.80
2018-12-30T19:35:36.282Z,83.70
2018-12-30T19:37:40.166Z,82.90
2018-12-30T19:39:43.938Z,81.90
2018-12-30T19:41:47.645Z,81.10
2018-12-30T19:43:51.491Z,81.70
2018-12-30T19:45:55.287Z,83.00
2018-12-30T19:48:00.617Z,84.00
2018-12-30T19:50:05.901Z,82.50
2018-12-30T19:52:09.774Z,82.00
2018-12-30T19:54:13.525Z,82.10
2018-12-30T19:56:21.851Z,81.60
2018-12-30T19:58:22.853Z,81.90
2018-12-30T20:00:26.665Z,81.50
2018-12-30T20:02:30.433Z,81.40
2018-12-30T20:04:40.520Z,81.30
2018-12-30T20:06:40.243Z,81.60
2018-12-30T20:08:44.092Z,84.20
2018-12-30T20:10:49.623Z,85.40
2018-12-30T20:12:53.434Z,85.20
2018-12-30T20:14:57.257Z,85.30
2018-12-30T20:17:01.114Z,85.30
2018-12-30T20:19:04.824Z,86.40
2018-12-30T20:21:08.625Z,86.50
2018-12-30T20:23:13.455Z,87.50
2018-12-30T20:25:18.944Z,88.60
2018-12-30T20:27:22.774Z,87.00
2018-12-30T20:29:26.550Z,86.70
2018-12-30T20:31:30.510Z,88.10
2018-12-30T20:33:34.288Z,87.00
2018-12-30T20:35:38.195Z,86.60
2018-12-30T20:37:41.988Z,87.60
2018-12-30T20:39:47.500Z,85.60
2018-12-30T20:41:52.261Z,84.90
2018-12-30T20:43:56.160Z,86.10
2018-12-30T20:45:59.906Z,85.30
2018-12-30T20:48:03.751Z,86.40
2018-12-30T20:50:08.083Z,86.20
2018-12-30T20:52:11.983Z,87.00
2018-12-30T20:54:17.448Z,87.80
2018-12-30T20:56:21.177Z,87.50
2018-12-30T20:58:26.843Z,86.80
2018-12-30T21:00:30.627Z,87.30
2018-12-30T21:02:35.233Z,87.80
2018-12-30T21:04:39.025Z,88.60
2018-12-30T21:06:42.903Z,88.20
2018-12-30T21:08:48.956Z,87.00
2018-12-30T21:10:52.953Z,87.50
2018-12-30T21:12:57.221Z,87.20
2018-12-30T21:15:01.280Z,86.90
2018-12-30T21:17:05.030Z,86.80
2018-12-30T21:19:08.992Z,86.40
2018-12-30T21:21:12.725Z,86.10
2018-12-30T21:23:17.886Z,85.70
2018-12-30T21:25:21.778Z,87.00
2018-12-30T21:27:25.496Z,86.90
2018-12-30T21:29:29.511Z,87.40
2018-12-30T21:31:33.339Z,88.50
2018-12-30T21:33:37.100Z,89.00
2018-12-30T21:35:41.131Z,88.60
2018-12-30T21:37:45.457Z,88.10
2018-12-30T21:39:49.455Z,87.70
2018-12-30T21:41:53.175Z,87.30
2018-12-30T21:43:57.134Z,87.00
2018-12-30T21:46:00.925Z,86.50
2018-12-30T21:48:04.696Z,86.30
2018-12-30T21:50:08.999Z,86.20
2018-12-30T21:52:13.173Z,86.90
2018-12-30T21:54:17.010Z,87.10
2018-12-30T21:56:20.804Z,86.90
2018-12-30T21:58:24.734Z,86.60
2018-12-30T22:00:28.588Z,86.20
2018-12-30T22:02:32.523Z,87.00
2018-12-30T22:04:36.896Z,86.50
2018-12-30T22:06:41.075Z,86.00
2018-12-30T22:08:44.830Z,85.40
2018-12-30T22:10:48.565Z,84.90
2018-12-30T22:12:52.476Z,85.20
2018-12-30T22:14:56.287Z,84.70
2018-12-30T22:17:00.074Z,85.00
2018-12-30T22:19:06.870Z,84.10
2018-12-30T22:21:10.773Z,83.90
2018-12-30T22:23:14.597Z,84.70
2018-12-30T22:25:18.906Z,85.00
2018-12-30T22:27:22.715Z,85.50
2018-12-30T22:29:30.880Z,83.80
2018-12-30T22:31:34.640Z,83.80
2018-12-30T22:33:38.346Z,84.70
2018-12-30T22:35:45.026Z,84.40
2018-12-30T22:37:48.830Z,83.50
2018-12-30T22:39:52.550Z,83.10
2018-12-30T22:41:56.315Z,82.60
2018-12-30T22:44:00.034Z,82.80
2018-12-30T22:46:03.737Z,82.80
2018-12-30T22:48:07.605Z,82.70
2018-12-30T22:50:13.740Z,82.60
2018-12-30T22:52:17.735Z,81.50
2018-12-30T22:54:21.470Z,82.10
2018-12-30T22:56:25.246Z,81.50
2018-12-30T22:58:29.120Z,82.50
2018-12-30T23:00:37.683Z,82.30
2018-12-30T23:02:41.526Z,81.70
2018-12-30T23:04:45.272Z,82.40
2018-12-30T23:06:49.153Z,82.30
2018-12-30T23:08:52.916Z,82.20
2018-12-30T23:10:59.774Z,81.50
2018-12-30T23:13:05.948Z,82.40
2018-12-30T23:15:11.850Z,82.20
2018-12-30T23:17:15.216Z,81.70
2018-12-30T23:19:19.381Z,81.60
2018-12-30T23:21:26.286Z,81.10
2018-12-30T23:23:30.161Z,81.20
2018-12-30T23:25:33.927Z,81.40
2018-12-30T23:27:42.225Z,80.90
2018-12-30T23:29:46.001Z,81.20
2018-12-30T23:31:49.724Z,82.20
2018-12-30T23:33:53.587Z,82.20
2018-12-30T23:35:57.345Z,82.30
2018-12-30T23:38:02.614Z,81.90
2018-12-30T23:40:06.425Z,82.10
2018-12-30T23:42:11.472Z,81.90
2018-12-30T23:44:15.239Z,81.90
2018-12-30T23:46:18.933Z,82.30
2018-12-30T23:48:23.243Z,82.00
2018-12-30T23:50:41.452Z,82.00
2018-12-30T23:52:32.577Z,81.50
2018-12-30T23:54:36.301Z,81.90
2018-12-30T23:56:41.823Z,82.10
2018-12-30T23:58:45.721Z,82.30
